createdAt,value
2018-09-11T00:00:27.864Z,0.00
2018-09-11T00:01:27.896Z,0.00
2018-09-11T00:02:27.931Z,0.00
2018-09-11T00:03:27.964Z,0.00
2018-09-11T00:04:27.999Z,0.00
2018-09-11T00:05:28.031Z,0.00
2018-09-11T00:06:28.064Z,0.00
2018-09-11T00:07:28.097Z,0.00
2018-09-11T00:08:28.133Z,0.00
2018-09-11T00:09:28.164Z,0.00
2018-09-11T00:10:28.199Z,0.00
2018-09-11T00:11:28.233Z,0.00
2018-09-11T00:12:28.268Z,0.00
2018-09-11T00:13:28.299Z,0.00
2018-09-11T00:14:28.332Z,0.00
2018-09-11T00:15:28.368Z,0.00
2018-09-11T00:16:28.400Z,0.00
2018-09-11T00:17:28.433Z,0.00
2018-09-11T00:18:28.468Z,0.00
2018-09-11T00:19:28.502Z,0.00
2018-09-11T00:20:28.535Z,0.00
2018-09-11T00:21:28.567Z,0.00
2018-09-11T00:22:28.601Z,0.00
2018-09-11T00:23:28.635Z,0.00
2018-09-11T00:24:28.669Z,0.00
2018-09-11T00:25:28.702Z,0.00
2018-09-11T00:26:28.736Z,0.00
2018-09-11T00:27:28.768Z,0.00
2018-09-11T00:28:28.803Z,0.00
2018-09-11T00:29:28.835Z,0.00
2018-09-11T00:30:28.869Z,0.00
2018-09-11T00:31:28.903Z,0.00
2018-09-11T00:32:28.937Z,0.00
2018-09-11T00:33:28.968Z,0.00
2018-09-11T00:34:29.004Z,0.00
2018-09-11T00:35:29.036Z,0.00
2018-09-11T00:36:29.071Z,0.00
2018-09-11T00:37:29.124Z,0.00
2018-09-11T00:38:29.140Z,0.00
2018-09-11T00:39:29.171Z,0.00
2018-09-11T00:40:29.204Z,0.00
2018-09-11T00:41:29.236Z,0.00
2018-09-11T00:42:29.270Z,0.00
2018-09-11T00:43:29.304Z,0.00
2018-09-11T00:44:29.337Z,0.00
2018-09-11T00:45:29.370Z,0.00
2018-09-11T00:46:29.403Z,0.00
2018-09-11T00:47:29.437Z,0.00
2018-09-11T00:48:29.469Z,0.00
2018-09-11T00:49:29.502Z,0.00
2018-09-11T00:50:29.538Z,0.00
2018-09-11T00:51:29.569Z,0.00
2018-09-11T00:52:29.603Z,0.00
2018-09-11T00:53:29.636Z,0.00
2018-09-11T00:54:29.673Z,0.00
2018-09-11T00:55:29.704Z,0.00
2018-09-11T00:56:29.737Z,0.00
2018-09-11T00:57:29.768Z,0.00
2018-09-11T00:58:29.803Z,0.00
2018-09-11T00:59:29.837Z,0.00
2018-09-11T01:00:29.872Z,0.00
2018-09-11T01:01:29.904Z,0.00
2018-09-11T01:02:29.936Z,0.00
2018-09-11T01:03:29.970Z,0.00
2018-09-11T01:04:30.003Z,0.00
2018-09-11T01:05:30.037Z,0.00
2018-09-11T01:06:30.069Z,0.00
2018-09-11T01:07:30.104Z,0.00
2018-09-11T01:08:30.136Z,0.00
2018-09-11T01:09:30.174Z,0.00
2018-09-11T01:10:30.204Z,0.00
2018-09-11T01:11:30.239Z,0.00
2018-09-11T01:12:30.269Z,0.00
2018-09-11T01:13:30.302Z,0.00
2018-09-11T01:14:30.334Z,0.00
2018-09-11T01:15:30.368Z,0.00
2018-09-11T01:16:30.402Z,0.00
2018-09-11T01:17:30.434Z,0.00
2018-09-11T01:18:30.467Z,0.00
2018-09-11T01:19:30.501Z,0.00
2018-09-11T01:20:30.535Z,0.00
2018-09-11T01:21:30.567Z,0.00
2018-09-11T01:22:30.601Z,0.00
2018-09-11T01:23:30.634Z,0.00
2018-09-11T01:24:30.666Z,0.00
2018-09-11T01:25:30.700Z,0.00
2018-09-11T01:26:30.735Z,0.00
2018-09-11T01:27:30.767Z,0.00
2018-09-11T01:28:30.801Z,0.00
2018-09-11T01:29:30.834Z,0.00
2018-09-11T01:30:30.865Z,0.00
2018-09-11T01:31:30.899Z,0.00
2018-09-11T01:32:30.932Z,0.00
2018-09-11T01:33:30.964Z,0.00
2018-09-11T01:34:30.998Z,0.00
2018-09-11T01:35:31.032Z,0.00
2018-09-11T01:36:31.064Z,0.00
2018-09-11T01:37:31.097Z,0.00
2018-09-11T01:38:31.131Z,0.00
2018-09-11T01:39:31.166Z,0.00
2018-09-11T01:40:31.198Z,0.00
2018-09-11T01:41:31.229Z,0.00
2018-09-11T01:42:31.262Z,0.00
2018-09-11T01:43:31.297Z,0.00
2018-09-11T01:44:31.329Z,0.00
2018-09-11T01:45:31.361Z,0.00
2018-09-11T01:46:31.396Z,0.00
2018-09-11T01:47:31.428Z,0.00
2018-09-11T01:48:31.463Z,0.00
2018-09-11T01:49:31.496Z,0.00
2018-09-11T01:50:31.528Z,0.00
2018-09-11T01:51:31.561Z,0.00
2018-09-11T01:52:31.594Z,0.00
2018-09-11T01:53:31.628Z,0.00
2018-09-11T01:54:31.659Z,0.00
2018-09-11T01:55:31.693Z,0.00
2018-09-11T01:56:31.729Z,0.00
2018-09-11T01:57:31.758Z,0.00
2018-09-11T01:58:31.793Z,0.00
2018-09-11T01:59:31.825Z,0.00
2018-09-11T02:00:31.858Z,0.00
2018-09-11T02:01:31.890Z,0.00
2018-09-11T02:02:31.922Z,0.00
2018-09-11T02:03:31.958Z,0.00
2018-09-11T02:04:31.990Z,0.00
2018-09-11T02:05:32.023Z,0.00
2018-09-11T02:06:32.056Z,0.00
2018-09-11T02:07:32.089Z,0.00
2018-09-11T02:08:32.126Z,0.00
2018-09-11T02:09:32.155Z,0.00
2018-09-11T02:10:32.187Z,0.00
2018-09-11T02:11:32.222Z,0.00
2018-09-11T02:12:32.253Z,0.00
2018-09-11T02:13:32.285Z,0.00
2018-09-11T02:14:32.320Z,0.00
2018-09-11T02:15:32.352Z,0.00
2018-09-11T02:16:32.386Z,0.00
2018-09-11T02:17:32.420Z,0.00
2018-09-11T02:18:32.453Z,0.00
2018-09-11T02:19:32.483Z,0.00
2018-09-11T02:20:32.517Z,0.00
2018-09-11T02:21:32.548Z,0.00
2018-09-11T02:22:32.581Z,0.00
2018-09-11T02:23:32.616Z,0.00
2018-09-11T02:24:32.648Z,0.00
2018-09-11T02:25:32.686Z,0.00
2018-09-11T02:26:32.713Z,0.00
2018-09-11T02:27:32.746Z,0.00
2018-09-11T02:28:32.789Z,0.00
2018-09-11T02:29:32.814Z,0.00
2018-09-11T02:30:32.845Z,0.00
2018-09-11T02:31:32.877Z,0.00
2018-09-11T02:32:32.911Z,0.00
2018-09-11T02:33:32.943Z,0.00
2018-09-11T02:34:32.976Z,0.00
2018-09-11T02:35:33.035Z,0.00
2018-09-11T02:36:33.043Z,0.00
2018-09-11T02:37:33.095Z,0.00
2018-09-11T02:38:41.021Z,0.00
2018-09-11T02:39:33.163Z,0.00
2018-09-11T02:40:33.174Z,0.00
2018-09-11T02:41:33.207Z,0.00
2018-09-11T02:42:33.240Z,0.00
2018-09-11T02:43:33.273Z,0.00
2018-09-11T02:44:33.305Z,0.00
2018-09-11T02:45:33.337Z,0.00
2018-09-11T02:46:33.370Z,0.00
2018-09-11T02:47:33.404Z,0.00
2018-09-11T02:48:33.437Z,0.00
2018-09-11T02:49:33.468Z,0.00
2018-09-11T02:50:33.503Z,0.00
2018-09-11T02:51:33.539Z,0.00
2018-09-11T02:52:33.567Z,0.00
2018-09-11T02:53:33.599Z,0.00
2018-09-11T02:54:33.631Z,0.00
2018-09-11T02:55:33.665Z,0.00
2018-09-11T02:56:33.698Z,0.00
2018-09-11T02:57:33.729Z,0.00
2018-09-11T02:58:33.761Z,0.00
2018-09-11T02:59:33.796Z,0.00
2018-09-11T03:00:33.828Z,0.00
2018-09-11T03:01:33.861Z,0.00
2018-09-11T03:02:33.893Z,0.00
2018-09-11T03:03:33.926Z,0.00
2018-09-11T03:04:33.960Z,0.00
2018-09-11T03:05:33.994Z,0.00
2018-09-11T03:06:34.025Z,0.00
2018-09-11T03:07:34.057Z,0.00
2018-09-11T03:08:34.090Z,0.00
2018-09-11T03:09:34.195Z,0.00
2018-09-11T03:10:34.160Z,0.00
2018-09-11T03:11:34.190Z,0.00
2018-09-11T03:12:34.221Z,0.00
2018-09-11T03:13:34.253Z,0.00
2018-09-11T03:14:34.291Z,0.00
2018-09-11T03:15:34.319Z,0.00
2018-09-11T03:16:34.350Z,0.00
2018-09-11T03:17:34.390Z,0.00
2018-09-11T03:18:34.415Z,0.00
2018-09-11T03:19:34.449Z,0.00
2018-09-11T03:20:34.483Z,0.00
2018-09-11T03:21:34.514Z,0.00
2018-09-11T03:22:34.545Z,0.00
2018-09-11T03:23:34.580Z,0.00
2018-09-11T03:24:34.614Z,0.00
2018-09-11T03:25:34.644Z,0.00
2018-09-11T03:26:34.679Z,0.00
2018-09-11T03:27:34.712Z,0.00
2018-09-11T03:28:34.742Z,0.00
2018-09-11T03:29:34.776Z,0.00
2018-09-11T03:30:34.809Z,0.00
2018-09-11T03:31:34.841Z,0.00
2018-09-11T03:32:34.874Z,0.00
2018-09-11T03:33:34.908Z,0.00
2018-09-11T03:34:34.938Z,0.00
2018-09-11T03:35:34.971Z,0.00
2018-09-11T03:36:35.005Z,0.00
2018-09-11T03:37:35.035Z,0.00
2018-09-11T03:38:35.074Z,0.00
2018-09-11T03:39:35.103Z,0.00
2018-09-11T03:40:35.135Z,0.00
2018-09-11T03:41:35.166Z,0.00
2018-09-11T03:42:35.200Z,0.00
2018-09-11T03:43:35.233Z,0.00
2018-09-11T03:44:35.265Z,0.00
2018-09-11T03:45:35.298Z,0.00
2018-09-11T03:46:35.330Z,0.00
2018-09-11T03:47:35.362Z,0.00
2018-09-11T03:48:35.400Z,0.00
2018-09-11T03:49:35.428Z,0.00
2018-09-11T03:50:35.461Z,0.00
2018-09-11T03:51:35.493Z,0.00
2018-09-11T03:52:35.526Z,0.00
2018-09-11T03:53:35.560Z,0.00
2018-09-11T03:54:35.591Z,0.00
2018-09-11T03:55:35.628Z,0.00
2018-09-11T03:56:35.656Z,0.00
2018-09-11T03:57:35.689Z,0.00
2018-09-11T03:58:35.720Z,0.00
2018-09-11T03:59:35.752Z,0.00
2018-09-11T04:00:35.787Z,0.00
2018-09-11T04:01:35.817Z,0.00
2018-09-11T04:02:35.850Z,0.00
2018-09-11T04:03:35.894Z,0.00
2018-09-11T04:04:35.915Z,0.00
2018-09-11T04:05:36.109Z,0.00
2018-09-11T04:06:35.980Z,0.00
2018-09-11T04:07:36.012Z,0.00
2018-09-11T04:08:36.048Z,0.00
2018-09-11T04:09:36.078Z,0.00
2018-09-11T04:10:36.109Z,0.00
2018-09-11T04:11:36.141Z,0.00
2018-09-11T04:12:36.176Z,0.00
2018-09-11T04:13:36.205Z,0.00
2018-09-11T04:14:36.237Z,0.00
2018-09-11T04:15:36.270Z,0.00
2018-09-11T04:16:36.304Z,0.00
2018-09-11T04:17:36.334Z,0.00
2018-09-11T04:18:36.367Z,0.00
2018-09-11T04:19:36.399Z,0.00
2018-09-11T04:20:36.438Z,0.00
2018-09-11T04:21:36.463Z,0.00
2018-09-11T04:22:36.495Z,0.00
2018-09-11T04:23:36.528Z,0.00
2018-09-11T04:24:36.560Z,0.00
2018-09-11T04:25:36.670Z,0.00
2018-09-11T04:26:36.631Z,0.00
2018-09-11T04:27:36.657Z,0.00
2018-09-11T04:28:36.691Z,0.00
2018-09-11T04:29:36.720Z,0.00
2018-09-11T04:30:36.752Z,0.00
2018-09-11T04:31:36.786Z,0.00
2018-09-11T04:32:36.817Z,0.00
2018-09-11T04:33:36.849Z,0.00
2018-09-11T04:34:36.884Z,0.00
2018-09-11T04:35:36.913Z,0.00
2018-09-11T04:36:36.947Z,0.00
2018-09-11T04:37:36.977Z,0.00
2018-09-11T04:38:37.009Z,0.00
2018-09-11T04:39:37.042Z,0.00
2018-09-11T04:40:37.074Z,0.00
2018-09-11T04:41:37.106Z,0.00
2018-09-11T04:42:37.137Z,0.00
2018-09-11T04:43:37.172Z,0.00
2018-09-11T04:44:37.203Z,0.00
2018-09-11T04:45:37.234Z,0.00
2018-09-11T04:46:37.267Z,0.00
2018-09-11T04:47:37.298Z,0.00
2018-09-11T04:48:37.332Z,0.00
2018-09-11T04:49:37.363Z,0.00
2018-09-11T04:50:37.397Z,0.00
2018-09-11T04:51:37.431Z,0.00
2018-09-11T04:52:37.460Z,0.00
2018-09-11T04:53:37.491Z,0.00
2018-09-11T04:54:37.528Z,0.00
2018-09-11T04:55:37.555Z,0.00
2018-09-11T04:56:37.590Z,0.00
2018-09-11T04:57:37.620Z,5.63
2018-09-11T04:58:37.651Z,5.63
2018-09-11T04:59:37.684Z,5.63
2018-09-11T05:00:37.716Z,5.63
2018-09-11T05:01:37.748Z,5.63
2018-09-11T05:02:37.781Z,5.63
2018-09-11T05:03:37.812Z,11.25
2018-09-11T05:04:37.845Z,11.25
2018-09-11T05:05:37.876Z,11.25
2018-09-11T05:06:37.909Z,11.25
2018-09-11T05:07:37.941Z,11.25
2018-09-11T05:08:37.973Z,16.88
2018-09-11T05:09:38.005Z,16.88
2018-09-11T05:10:38.039Z,16.88
2018-09-11T05:11:38.072Z,16.88
2018-09-11T05:12:38.101Z,16.88
2018-09-11T05:13:38.135Z,22.50
2018-09-11T05:14:38.169Z,22.50
2018-09-11T05:15:38.199Z,22.50
2018-09-11T05:16:38.231Z,22.50
2018-09-11T05:17:38.262Z,28.13
2018-09-11T05:18:38.308Z,28.13
2018-09-11T05:19:38.327Z,28.13
2018-09-11T05:20:38.359Z,33.75
2018-09-11T05:21:38.393Z,33.75
2018-09-11T05:22:38.423Z,33.75
2018-09-11T05:23:38.455Z,33.75
2018-09-11T05:24:38.488Z,39.38
2018-09-11T05:25:38.520Z,39.38
2018-09-11T05:26:38.552Z,45.00
2018-09-11T05:27:38.585Z,45.00
2018-09-11T05:28:38.617Z,45.00
2018-09-11T05:29:38.647Z,50.63
2018-09-11T05:30:38.682Z,50.63
2018-09-11T05:31:38.714Z,50.63
2018-09-11T05:32:38.745Z,56.25
2018-09-11T05:33:38.807Z,56.25
2018-09-11T05:34:38.810Z,56.25
2018-09-11T05:35:38.842Z,61.88
2018-09-11T05:36:38.875Z,61.88
2018-09-11T05:37:38.907Z,67.50
2018-09-11T05:38:38.938Z,67.50
2018-09-11T05:39:38.973Z,67.50
2018-09-11T05:40:39.006Z,67.50
2018-09-11T05:41:39.036Z,67.50
2018-09-11T05:42:39.069Z,73.13
2018-09-11T05:43:39.102Z,73.13
2018-09-11T05:44:39.132Z,73.13
2018-09-11T05:45:39.368Z,73.13
2018-09-11T05:46:39.199Z,78.75
2018-09-11T05:47:39.230Z,78.75
2018-09-11T05:48:39.263Z,78.75
2018-09-11T05:49:39.298Z,78.75
2018-09-11T05:50:39.332Z,84.38
2018-09-11T05:51:39.360Z,84.38
2018-09-11T05:52:39.393Z,84.38
2018-09-11T05:53:39.426Z,84.38
2018-09-11T05:54:39.457Z,90.00
2018-09-11T05:55:39.490Z,90.00
2018-09-11T05:56:39.523Z,90.00
2018-09-11T05:57:39.555Z,95.63
2018-09-11T05:58:39.590Z,95.63
2018-09-11T05:59:39.621Z,95.63
2018-09-11T06:00:39.652Z,101.25
2018-09-11T06:01:39.691Z,101.25
2018-09-11T06:02:39.719Z,101.25
2018-09-11T06:03:39.751Z,101.25
2018-09-11T06:04:39.785Z,106.88
2018-09-11T06:05:39.901Z,106.88
2018-09-11T06:06:39.848Z,106.88
2018-09-11T06:07:39.883Z,106.88
2018-09-11T06:08:39.916Z,106.88
2018-09-11T06:09:39.948Z,112.50
2018-09-11T06:10:39.983Z,112.50
2018-09-11T06:11:40.034Z,112.50
2018-09-11T06:12:40.065Z,112.50
2018-09-11T06:13:40.082Z,118.13
2018-09-11T06:14:40.114Z,118.13
2018-09-11T06:15:40.146Z,118.13
2018-09-11T06:16:40.225Z,118.13
2018-09-11T06:17:40.214Z,118.13
2018-09-11T06:18:40.254Z,118.13
2018-09-11T06:19:40.280Z,123.75
2018-09-11T06:20:40.314Z,123.75
2018-09-11T06:21:40.347Z,123.75
2018-09-11T06:22:40.380Z,123.75
2018-09-11T06:23:40.416Z,123.75
2018-09-11T06:24:40.449Z,129.38
2018-09-11T06:25:40.541Z,129.38
2018-09-11T06:26:40.516Z,129.38
2018-09-11T06:27:40.548Z,129.38
2018-09-11T06:28:40.582Z,129.38
2018-09-11T06:29:40.622Z,129.38
2018-09-11T06:30:40.649Z,135.00
2018-09-11T06:31:40.682Z,135.00
2018-09-11T06:32:40.716Z,135.00
2018-09-11T06:33:40.749Z,135.00
2018-09-11T06:34:40.783Z,135.00
2018-09-11T06:35:40.816Z,140.63
2018-09-11T06:36:40.849Z,140.63
2018-09-11T06:37:40.883Z,140.63
2018-09-11T06:38:40.917Z,146.25
2018-09-11T06:39:40.952Z,140.63
2018-09-11T06:40:40.985Z,140.63
2018-09-11T06:41:41.017Z,146.25
2018-09-11T06:42:41.052Z,146.25
2018-09-11T06:43:41.085Z,146.25
2018-09-11T06:44:41.167Z,146.25
2018-09-11T06:45:41.153Z,146.25
2018-09-11T06:46:41.188Z,151.88
2018-09-11T06:47:41.222Z,151.88
2018-09-11T06:48:41.312Z,151.88
2018-09-11T06:49:41.290Z,151.88
2018-09-11T06:50:41.323Z,151.88
2018-09-11T06:51:41.357Z,151.88
2018-09-11T06:52:41.392Z,151.88
2018-09-11T06:53:41.426Z,146.25
2018-09-11T06:54:41.474Z,151.88
2018-09-11T06:55:41.499Z,151.88
2018-09-11T06:56:41.529Z,151.88
2018-09-11T06:57:41.563Z,151.88
2018-09-11T06:58:41.599Z,151.88
2018-09-11T06:59:41.631Z,151.88
2018-09-11T07:00:41.770Z,157.50
2018-09-11T07:01:41.701Z,157.50
2018-09-11T07:02:41.735Z,157.50
2018-09-11T07:03:41.769Z,157.50
2018-09-11T07:04:41.804Z,157.50
2018-09-11T07:05:41.843Z,157.50
2018-09-11T07:06:41.880Z,157.50
2018-09-11T07:07:41.906Z,163.13
2018-09-11T07:08:41.944Z,157.50
2018-09-11T07:09:41.976Z,163.13
2018-09-11T07:10:42.012Z,157.50
2018-09-11T07:11:42.045Z,163.13
2018-09-11T07:12:42.081Z,163.13
2018-09-11T07:13:42.115Z,163.13
2018-09-11T07:14:42.254Z,163.13
2018-09-11T07:15:42.186Z,163.13
2018-09-11T07:16:42.220Z,163.13
2018-09-11T07:17:42.255Z,168.75
2018-09-11T07:18:42.291Z,168.75
2018-09-11T07:19:42.439Z,168.75
2018-09-11T07:20:42.365Z,174.38
2018-09-11T07:21:42.418Z,174.38
2018-09-11T07:22:42.433Z,180.00
2018-09-11T07:23:42.467Z,180.00
2018-09-11T07:24:42.503Z,180.00
2018-09-11T07:25:42.539Z,180.00
2018-09-11T07:26:42.573Z,185.63
2018-09-11T07:27:42.609Z,185.63
2018-09-11T07:28:42.644Z,191.25
2018-09-11T07:29:42.679Z,196.88
2018-09-11T07:30:42.714Z,196.88
2018-09-11T07:31:42.754Z,196.88
2018-09-11T07:32:42.788Z,202.50
2018-09-11T07:33:42.827Z,196.88
2018-09-11T07:34:42.859Z,196.88
2018-09-11T07:35:42.894Z,191.25
2018-09-11T07:36:42.931Z,191.25
2018-09-11T07:37:42.981Z,196.88
2018-09-11T07:38:43.001Z,196.88
2018-09-11T07:39:43.042Z,191.25
2018-09-11T07:40:43.074Z,196.88
2018-09-11T07:41:43.109Z,191.25
2018-09-11T07:42:43.149Z,202.50
2018-09-11T07:43:43.183Z,202.50
2018-09-11T07:44:43.218Z,202.50
2018-09-11T07:45:43.254Z,196.88
2018-09-11T07:46:43.290Z,202.50
2018-09-11T07:47:43.330Z,208.13
2018-09-11T07:48:43.366Z,208.13
2018-09-11T07:49:43.399Z,202.50
2018-09-11T07:50:43.436Z,208.13
2018-09-11T07:51:43.472Z,219.38
2018-09-11T07:52:43.644Z,225.00
2018-09-11T07:53:43.545Z,230.63
2018-09-11T07:54:43.581Z,230.63
2018-09-11T07:55:43.618Z,230.63
2018-09-11T07:56:43.655Z,230.63
2018-09-11T07:57:43.859Z,236.25
2018-09-11T07:58:43.728Z,241.88
2018-09-11T07:59:43.764Z,247.50
2018-09-11T08:00:43.825Z,247.50
2018-09-11T08:01:43.838Z,247.50
2018-09-11T08:02:43.874Z,253.13
2018-09-11T08:03:43.912Z,253.13
2018-09-11T08:04:43.949Z,258.75
2018-09-11T08:05:43.985Z,258.75
2018-09-11T08:06:44.023Z,258.75
2018-09-11T08:07:44.060Z,258.75
2018-09-11T08:08:44.097Z,264.38
2018-09-11T08:09:44.134Z,264.38
2018-09-11T08:10:44.173Z,264.38
2018-09-11T08:11:44.212Z,264.38
2018-09-11T08:12:44.246Z,270.00
2018-09-11T08:13:44.283Z,270.00
2018-09-11T08:14:44.321Z,270.00
2018-09-11T08:15:44.359Z,270.00
2018-09-11T08:16:44.396Z,275.63
2018-09-11T08:17:44.433Z,275.63
2018-09-11T08:18:44.472Z,275.63
2018-09-11T08:19:44.533Z,275.63
2018-09-11T08:20:44.548Z,275.63
2018-09-11T08:21:44.585Z,270.00
2018-09-11T08:22:44.624Z,270.00
2018-09-11T08:23:44.662Z,264.38
2018-09-11T08:24:44.703Z,275.63
2018-09-11T08:25:44.738Z,281.25
2018-09-11T08:26:44.777Z,281.25
2018-09-11T08:27:44.819Z,281.25
2018-09-11T08:28:44.855Z,281.25
2018-09-11T08:29:44.892Z,275.63
2018-09-11T08:30:44.933Z,281.25
2018-09-11T08:31:44.970Z,281.25
2018-09-11T08:32:45.009Z,281.25
2018-09-11T08:33:45.054Z,286.88
2018-09-11T08:34:45.088Z,292.50
2018-09-11T08:35:45.126Z,298.13
2018-09-11T08:36:45.163Z,298.13
2018-09-11T08:37:45.205Z,298.13
2018-09-11T08:38:45.243Z,298.13
2018-09-11T08:39:45.282Z,303.75
2018-09-11T08:40:45.321Z,303.75
2018-09-11T08:41:45.360Z,309.38
2018-09-11T08:42:45.399Z,309.38
2018-09-11T08:43:45.439Z,309.38
2018-09-11T08:44:45.479Z,309.38
2018-09-11T08:45:45.517Z,309.38
2018-09-11T08:46:45.581Z,298.13
2018-09-11T08:47:45.597Z,298.13
2018-09-11T08:48:45.642Z,292.50
2018-09-11T08:49:45.678Z,298.13
2018-09-11T08:50:45.736Z,292.50
2018-09-11T08:51:45.754Z,298.13
2018-09-11T08:52:45.837Z,337.50
2018-09-11T08:53:45.837Z,337.50
2018-09-11T08:54:45.876Z,343.13
2018-09-11T08:55:45.915Z,331.88
2018-09-11T08:56:45.956Z,337.50
2018-09-11T08:57:45.993Z,337.50
2018-09-11T08:58:46.033Z,360.00
2018-09-11T08:59:46.075Z,568.13
2018-09-11T09:00:46.115Z,1012.50
2018-09-11T09:01:46.155Z,1338.75
2018-09-11T09:02:46.199Z,1665.00
2018-09-11T09:03:46.237Z,1681.88
2018-09-11T09:04:46.278Z,1721.25
2018-09-11T09:05:46.321Z,1760.63
2018-09-11T09:06:46.360Z,1800.00
2018-09-11T09:07:46.402Z,1794.38
2018-09-11T09:08:46.444Z,1822.50
2018-09-11T09:09:46.485Z,1861.88
2018-09-11T09:10:46.528Z,1901.25
2018-09-11T09:11:46.571Z,1974.38
2018-09-11T09:12:46.614Z,2019.38
2018-09-11T09:13:46.660Z,1996.88
2018-09-11T09:14:46.703Z,1963.13
2018-09-11T09:15:48.152Z,2030.63
2018-09-11T09:16:46.993Z,2019.38
2018-09-11T09:17:46.837Z,1996.88
2018-09-11T09:18:46.882Z,1980.00
2018-09-11T09:19:46.926Z,1963.13
2018-09-11T09:20:47.021Z,1918.13
2018-09-11T09:21:47.028Z,1890.00
2018-09-11T09:22:47.065Z,1946.25
2018-09-11T09:23:47.112Z,2086.88
2018-09-11T09:24:47.362Z,2109.38
2018-09-11T09:25:47.204Z,2058.75
2018-09-11T09:26:47.253Z,2019.38
2018-09-11T09:27:47.299Z,2013.75
2018-09-11T09:28:47.345Z,2008.13
2018-09-11T09:29:47.396Z,2025.00
2018-09-11T09:30:47.441Z,2070.00
2018-09-11T09:31:47.488Z,2041.88
2018-09-11T09:33:47.609Z,1951.88
2018-09-11T09:34:47.633Z,1895.63
2018-09-11T09:35:47.681Z,1833.75
2018-09-11T09:36:47.795Z,1861.88
2018-09-11T09:37:47.778Z,1929.38
2018-09-11T09:38:47.827Z,2216.25
2018-09-11T09:39:47.876Z,2233.13
2018-09-11T09:40:47.925Z,2131.88
2018-09-11T09:41:47.978Z,2086.88
2018-09-11T09:42:48.024Z,2098.13
2018-09-11T09:43:48.085Z,2070.00
2018-09-11T09:44:48.123Z,1985.63
2018-09-11T09:45:48.171Z,1996.88
2018-09-11T09:46:48.221Z,2047.50
2018-09-11T09:47:48.271Z,2188.13
2018-09-11T09:48:48.322Z,2210.63
2018-09-11T09:49:48.370Z,2266.88
2018-09-11T09:52:48.525Z,2171.25
2018-09-11T09:53:48.573Z,2103.75
2018-09-11T09:54:48.623Z,2092.50
2018-09-11T09:55:48.674Z,2261.25
2018-09-11T09:57:48.776Z,2289.38
2018-09-11T09:58:48.827Z,2289.38
2018-09-11T09:59:48.878Z,2238.75
2018-09-11T10:00:48.929Z,2306.25
2018-09-11T10:01:48.981Z,2373.75
2018-09-11T10:02:49.032Z,2373.75
2018-09-11T10:03:49.085Z,2503.13
2018-09-11T10:05:49.186Z,2570.63
2018-09-11T10:06:49.237Z,2345.63
2018-09-11T10:07:49.292Z,2323.13
2018-09-11T10:08:49.343Z,2446.88
2018-09-11T10:09:49.394Z,2340.00
2018-09-11T10:10:49.447Z,2255.63
2018-09-11T10:11:49.505Z,2148.75
2018-09-11T10:12:49.557Z,2250.00
2018-09-11T10:13:49.605Z,2396.25
2018-09-11T10:14:49.657Z,2323.13
2018-09-11T10:15:49.708Z,2486.25
2018-09-11T10:16:49.763Z,2570.63
2018-09-11T10:17:49.813Z,2475.00
2018-09-11T10:18:49.865Z,2525.63
2018-09-11T10:19:49.918Z,2565.00
2018-09-11T10:20:49.972Z,2542.50
2018-09-11T10:21:50.025Z,2553.75
2018-09-11T10:22:50.076Z,2503.13
2018-09-11T10:23:50.130Z,2430.00
2018-09-11T10:24:50.184Z,2475.00
2018-09-11T10:25:50.237Z,2514.38
2018-09-11T10:26:50.289Z,2463.75
2018-09-11T10:27:50.342Z,2356.88
2018-09-11T10:28:50.396Z,2531.25
2018-09-11T10:29:50.450Z,2604.38
2018-09-11T10:30:50.502Z,2587.50
2018-09-11T10:31:50.555Z,2688.75
2018-09-11T10:32:50.610Z,2716.88
2018-09-11T10:33:50.687Z,2711.25
2018-09-11T10:34:50.716Z,2683.13
2018-09-11T10:35:50.770Z,2694.38
2018-09-11T10:36:50.824Z,2694.38
2018-09-11T10:37:50.876Z,2694.38
2018-09-11T10:38:50.930Z,2711.25
2018-09-11T10:39:50.985Z,2548.13
2018-09-11T10:40:51.039Z,2385.00
2018-09-11T10:41:51.112Z,2463.75
2018-09-11T10:42:51.168Z,2525.63
2018-09-11T10:43:51.224Z,2570.63
2018-09-11T10:44:51.258Z,2632.50
2018-09-11T10:45:51.308Z,2761.88
2018-09-11T10:46:51.366Z,2733.75
2018-09-11T10:47:51.416Z,2576.25
2018-09-11T10:48:51.513Z,2452.50
2018-09-11T10:49:51.525Z,2739.38
2018-09-11T10:50:51.581Z,2756.25
2018-09-11T10:51:51.676Z,2812.50
2018-09-11T10:52:51.712Z,2638.13
2018-09-11T10:53:51.743Z,2761.88
2018-09-11T10:54:51.798Z,2694.38
2018-09-11T10:55:51.852Z,2773.13
2018-09-11T10:56:51.911Z,2851.88
2018-09-11T10:57:51.960Z,2778.75
2018-09-11T10:58:52.016Z,2593.13
2018-09-11T10:59:52.071Z,2581.88
2018-09-11T11:00:52.126Z,2401.88
2018-09-11T11:01:52.180Z,2092.50
2018-09-11T11:02:52.234Z,2081.25
2018-09-11T11:03:52.290Z,2165.63
2018-09-11T11:04:52.345Z,2233.13
2018-09-11T11:05:52.399Z,2221.88
2018-09-11T11:06:52.454Z,2598.75
2018-09-11T11:07:52.509Z,2795.63
2018-09-11T11:08:52.568Z,2700.00
2018-09-11T11:09:52.619Z,2424.38
2018-09-11T11:10:52.675Z,2525.63
2018-09-11T11:11:52.729Z,2638.13
2018-09-11T11:12:52.804Z,2750.63
2018-09-11T11:13:52.862Z,2851.88
2018-09-11T11:14:52.895Z,2818.13
2018-09-11T11:15:52.951Z,2626.88
2018-09-11T11:16:53.010Z,2424.38
2018-09-11T11:17:53.061Z,2531.25
2018-09-11T11:19:53.173Z,2503.13
2018-09-11T11:20:53.229Z,2334.38
2018-09-11T11:21:53.516Z,2413.13
2018-09-11T11:22:53.342Z,2475.00
2018-09-11T11:23:53.419Z,2559.38
2018-09-11T11:25:53.510Z,2278.13
2018-09-11T11:26:53.611Z,2255.63
2018-09-11T11:31:54.048Z,2728.13
2018-09-11T11:32:53.902Z,2694.38
2018-09-11T11:33:53.957Z,2621.25
2018-09-11T11:34:54.014Z,2745.00
2018-09-11T11:35:54.084Z,2632.50
2018-09-11T11:36:54.326Z,2508.75
2018-09-11T11:37:56.806Z,2452.50
2018-09-11T11:38:54.241Z,2491.88
2018-09-11T11:39:54.295Z,2598.75
2018-09-11T11:40:54.352Z,2750.63
2018-09-11T11:41:54.427Z,2868.75
2018-09-11T11:42:54.535Z,2851.88
2018-09-11T11:43:54.521Z,2835.00
2018-09-11T11:44:54.577Z,2812.50
2018-09-11T11:45:57.254Z,2829.38
2018-09-11T11:46:54.694Z,2806.88
2018-09-11T11:47:54.747Z,2621.25
2018-09-11T11:48:54.806Z,2671.88
2018-09-11T11:49:54.859Z,2857.50
2018-09-11T11:50:54.918Z,2863.13
2018-09-11T11:51:54.974Z,3020.63
2018-09-11T11:52:55.031Z,2874.38
2018-09-11T11:53:55.087Z,2835.00
2018-09-11T11:54:55.185Z,2784.38
2018-09-11T11:55:55.201Z,2880.00
2018-09-11T11:56:55.257Z,2936.25
2018-09-11T11:57:55.313Z,2891.25
2018-09-11T11:58:55.419Z,2958.75
2018-09-11T11:59:55.426Z,3003.75
2018-09-11T12:00:55.487Z,2941.88
2018-09-11T12:01:55.579Z,2880.00
2018-09-11T12:02:55.596Z,2851.88
2018-09-11T12:03:55.655Z,2885.63
2018-09-11T12:04:55.708Z,2953.13
2018-09-11T12:05:55.765Z,2851.88
2018-09-11T12:06:55.820Z,2767.50
2018-09-11T12:07:55.947Z,2829.38
2018-09-11T12:08:55.934Z,2761.88
2018-09-11T12:09:55.990Z,2750.63
2018-09-11T12:10:56.045Z,2919.38
2018-09-11T12:11:56.106Z,2812.50
2018-09-11T12:12:56.159Z,2851.88
2018-09-11T12:13:56.216Z,2851.88
2018-09-11T12:14:56.279Z,2773.13
2018-09-11T12:15:56.328Z,2835.00
2018-09-11T12:16:56.411Z,2919.38
2018-09-11T12:17:56.440Z,2941.88
2018-09-11T12:18:56.497Z,2947.50
2018-09-11T12:19:56.553Z,2919.38
2018-09-11T12:20:56.611Z,2902.50
2018-09-11T12:21:56.670Z,2835.00
2018-09-11T12:22:56.720Z,2576.25
2018-09-11T12:23:56.777Z,2531.25
2018-09-11T12:24:56.833Z,2711.25
2018-09-11T12:25:56.889Z,2818.13
2018-09-11T12:26:56.946Z,2784.38
2018-09-11T12:27:57.001Z,2925.00
2018-09-11T12:28:57.057Z,2835.00
2018-09-11T12:29:57.112Z,2829.38
2018-09-11T12:30:57.217Z,2840.63
2018-09-11T12:31:57.224Z,2767.50
2018-09-11T12:32:57.280Z,2818.13
2018-09-11T12:33:57.335Z,2857.50
2018-09-11T12:34:57.392Z,2677.50
2018-09-11T12:35:57.449Z,2559.38
2018-09-11T12:36:57.503Z,2598.75
2018-09-11T12:37:57.560Z,2761.88
2018-09-11T12:38:57.614Z,2548.13
2018-09-11T12:39:57.671Z,2649.38
2018-09-11T12:40:57.725Z,2621.25
2018-09-11T12:41:57.781Z,2542.50
2018-09-11T12:42:57.838Z,2615.63
2018-09-11T12:43:57.895Z,2587.50
2018-09-11T12:44:57.952Z,2469.38
2018-09-11T12:45:58.162Z,2401.88
2018-09-11T12:46:58.255Z,2851.88
2018-09-11T12:47:58.652Z,2840.63
2018-09-11T12:48:58.174Z,2790.00
2018-09-11T12:49:58.226Z,2851.88
2018-09-11T12:50:58.283Z,2851.88
2018-09-11T12:51:58.338Z,2925.00
2018-09-11T12:52:58.394Z,2823.75
2018-09-11T12:53:58.449Z,2610.00